Disclaimer

Please do not use the information listed here in-flight or in-navigation, as they are not provided to us by the airports but are provided by volunteers, so they might be outdated.

Search


Regions


Airport information page

Radio informations:
Tower (TWR) - 119.7 MHz
A/G VOICE RDO - 4657 MHz

Airport informations:
Latitude: 11° 32' 01.18" S
Longitude: 043° 16' 18.66" E
Elevation: 93 feet - 28 meters
Operating hours: Remarks
Operating agency: Civil government, landing fees and diplomatic clearance may be required
Timezone: UTC+3
Fuel: N/A

Runway information:
02/20 - 9514 x 148 feet< - >2900 x 45 meters

Recent METARs:
FMCH 160900Z 35012KT 9999 SCT020CB BKN030 31/26 Q1013 NOSIG
FMCH 160900Z 35012KT 9999 SCT020CB BKN030 31/26 Q1013 NOSIG
FMCH 161000Z 35015KT 9999 VCSH FEW010 SCT019CB SCT025 29/25 Q1013 TEMPO TSRA

Airport on the map: